sensor_id;sensor_type;location;lat;lon;timestamp;temperature;humidity
7034;DHT22;3558;53.176;10.412;2024-03-08T00:00:32;8.60;59.40
7034;DHT22;3558;53.176;10.412;2024-03-08T00:02:58;8.50;59.30
7034;DHT22;3558;53.176;10.412;2024-03-08T00:05:24;8.50;59.30
7034;DHT22;3558;53.176;10.412;2024-03-08T00:07:49;8.50;59.30
7034;DHT22;3558;53.176;10.412;2024-03-08T00:10:15;8.50;59.80
7034;DHT22;3558;53.176;10.412;2024-03-08T00:12:43;8.40;59.30
7034;DHT22;3558;53.176;10.412;2024-03-08T00:15:10;8.40;59.30
7034;DHT22;3558;53.176;10.412;2024-03-08T00:17:36;8.40;59.30
7034;DHT22;3558;53.176;10.412;2024-03-08T00:20:02;8.40;59.30
7034;DHT22;3558;53.176;10.412;2024-03-08T00:22:34;8.30;59.20
7034;DHT22;3558;53.176;10.412;2024-03-08T00:24:59;8.30;59.30
7034;DHT22;3558;53.176;10.412;2024-03-08T00:27:24;8.30;59.30
7034;DHT22;3558;53.176;10.412;2024-03-08T00:29:50;8.30;59.30
7034;DHT22;3558;53.176;10.412;2024-03-08T00:32:15;8.30;59.30
7034;DHT22;3558;53.176;10.412;2024-03-08T00:34:42;8.20;59.30
7034;DHT22;3558;53.176;10.412;2024-03-08T00:37:08;8.20;59.20
7034;DHT22;3558;53.176;10.412;2024-03-08T00:39:33;8.20;59.20
7034;DHT22;3558;53.176;10.412;2024-03-08T00:41:59;8.20;59.30
7034;DHT22;3558;53.176;10.412;2024-03-08T00:44:24;8.20;59.20
7034;DHT22;3558;53.176;10.412;2024-03-08T00:46:50;8.20;59.10
7034;DHT22;3558;53.176;10.412;2024-03-08T00:49:16;8.10;59.10
7034;DHT22;3558;53.176;10.412;2024-03-08T00:51:42;8.10;59.10
7034;DHT22;3558;53.176;10.412;2024-03-08T00:54:08;8.10;59.10
7034;DHT22;3558;53.176;10.412;2024-03-08T00:56:34;8.10;59.20
7034;DHT22;3558;53.176;10.412;2024-03-08T00:59:01;8.00;59.10
7034;DHT22;3558;53.176;10.412;2024-03-08T01:01:28;8.00;59.10
7034;DHT22;3558;53.176;10.412;2024-03-08T01:03:53;8.00;59.10
7034;DHT22;3558;53.176;10.412;2024-03-08T01:06:19;8.00;59.00
7034;DHT22;3558;53.176;10.412;2024-03-08T01:08:45;7.90;59.00
7034;DHT22;3558;53.176;10.412;2024-03-08T01:11:12;7.90;59.10
7034;DHT22;3558;53.176;10.412;2024-03-08T01:13:38;7.90;59.10
7034;DHT22;3558;53.176;10.412;2024-03-08T01:16:03;7.90;59.00
7034;DHT22;3558;53.176;10.412;2024-03-08T01:18:29;7.90;59.10
7034;DHT22;3558;53.176;10.412;2024-03-08T01:20:55;7.80;59.50
7034;DHT22;3558;53.176;10.412;2024-03-08T01:23:20;7.80;59.00
7034;DHT22;3558;53.176;10.412;2024-03-08T01:25:46;7.80;59.00
7034;DHT22;3558;53.176;10.412;2024-03-08T01:28:12;7.80;59.00
7034;DHT22;3558;53.176;10.412;2024-03-08T01:30:38;7.80;59.00
7034;DHT22;3558;53.176;10.412;2024-03-08T01:33:04;7.80;59.00
7034;DHT22;3558;53.176;10.412;2024-03-08T01:35:29;7.70;59.00
7034;DHT22;3558;53.176;10.412;2024-03-08T01:37:55;7.70;59.00
7034;DHT22;3558;53.176;10.412;2024-03-08T01:40:20;7.70;59.00
7034;DHT22;3558;53.176;10.412;2024-03-08T01:42:46;7.70;59.60
7034;DHT22;3558;53.176;10.412;2024-03-08T01:45:13;7.70;59.00
7034;DHT22;3558;53.176;10.412;2024-03-08T01:47:39;7.60;59.00
7034;DHT22;3558;53.176;10.412;2024-03-08T01:50:04;7.60;58.90
7034;DHT22;3558;53.176;10.412;2024-03-08T01:52:32;7.60;58.90
7034;DHT22;3558;53.176;10.412;2024-03-08T01:55:02;7.60;58.80
7034;DHT22;3558;53.176;10.412;2024-03-08T01:57:35;7.50;58.70
7034;DHT22;3558;53.176;10.412;2024-03-08T02:00:01;7.50;58.80
7034;DHT22;3558;53.176;10.412;2024-03-08T02:02:32;7.50;58.90
7034;DHT22;3558;53.176;10.412;2024-03-08T02:04:58;7.50;58.90
7034;DHT22;3558;53.176;10.412;2024-03-08T02:07:23;7.50;58.90
7034;DHT22;3558;53.176;10.412;2024-03-08T02:09:49;7.50;58.90
7034;DHT22;3558;53.176;10.412;2024-03-08T02:12:14;7.40;58.90
7034;DHT22;3558;53.176;10.412;2024-03-08T02:14:40;7.50;59.00
7034;DHT22;3558;53.176;10.412;2024-03-08T02:17:05;7.40;59.00
7034;DHT22;3558;53.176;10.412;2024-03-08T02:19:31;7.40;59.00
7034;DHT22;3558;53.176;10.412;2024-03-08T02:21:58;7.40;58.90
7034;DHT22;3558;53.176;10.412;2024-03-08T02:24:24;7.40;58.90
7034;DHT22;3558;53.176;10.412;2024-03-08T02:26:50;7.40;58.90
7034;DHT22;3558;53.176;10.412;2024-03-08T02:29:16;7.30;58.90
7034;DHT22;3558;53.176;10.412;2024-03-08T03:46:51;6.50;58.40
7034;DHT22;3558;53.176;10.412;2024-03-08T03:49:17;6.50;58.30
7034;DHT22;3558;53.176;10.412;2024-03-08T03:51:43;6.50;58.30
7034;DHT22;3558;53.176;10.412;2024-03-08T03:54:10;6.50;58.30
7034;DHT22;3558;53.176;10.412;2024-03-08T03:56:35;6.40;58.30
7034;DHT22;3558;53.176;10.412;2024-03-08T03:59:01;6.40;58.30
7034;DHT22;3558;53.176;10.412;2024-03-08T04:01:26;6.40;58.20
7034;DHT22;3558;53.176;10.412;2024-03-08T04:03:52;6.40;58.10
7034;DHT22;3558;53.176;10.412;2024-03-08T04:06:17;6.40;58.10
7034;DHT22;3558;53.176;10.412;2024-03-08T04:08:43;6.30;58.10
7034;DHT22;3558;53.176;10.412;2024-03-08T04:11:08;6.30;58.10
7034;DHT22;3558;53.176;10.412;2024-03-08T04:13:34;6.30;58.10
7034;DHT22;3558;53.176;10.412;2024-03-08T04:15:59;6.20;58.20
7034;DHT22;3558;53.176;10.412;2024-03-08T04:18:25;6.20;58.20
7034;DHT22;3558;53.176;10.412;2024-03-08T04:20:51;6.20;58.20
7034;DHT22;3558;53.176;10.412;2024-03-08T04:23:16;6.20;58.20
7034;DHT22;3558;53.176;10.412;2024-03-08T04:25:43;6.20;58.20
7034;DHT22;3558;53.176;10.412;2024-03-08T04:28:09;6.20;58.10
7034;DHT22;3558;53.176;10.412;2024-03-08T04:30:38;6.10;58.10
7034;DHT22;3558;53.176;10.412;2024-03-08T04:33:05;6.10;58.10
7034;DHT22;3558;53.176;10.412;2024-03-08T04:35:31;6.10;58.00
7034;DHT22;3558;53.176;10.412;2024-03-08T04:37:56;6.00;58.00
7034;DHT22;3558;53.176;10.412;2024-03-08T04:40:23;6.00;57.90
7034;DHT22;3558;53.176;10.412;2024-03-08T04:42:49;6.00;57.90
7034;DHT22;3558;53.176;10.412;2024-03-08T04:45:16;6.00;57.90
7034;DHT22;3558;53.176;10.412;2024-03-08T04:47:41;5.90;57.90
7034;DHT22;3558;53.176;10.412;2024-03-08T04:50:07;5.90;57.90
7034;DHT22;3558;53.176;10.412;2024-03-08T04:52:34;5.90;57.90
7034;DHT22;3558;53.176;10.412;2024-03-08T04:55:01;5.80;57.80
7034;DHT22;3558;53.176;10.412;2024-03-08T04:57:27;5.80;57.80
7034;DHT22;3558;53.176;10.412;2024-03-08T04:59:53;5.80;57.80
7034;DHT22;3558;53.176;10.412;2024-03-08T05:02:18;5.70;57.90
7034;DHT22;3558;53.176;10.412;2024-03-08T05:04:44;5.40;58.40
7034;DHT22;3558;53.176;10.412;2024-03-08T05:07:09;5.20;58.90
7034;DHT22;3558;53.176;10.412;2024-03-08T05:09:35;5.30;58.70
7034;DHT22;3558;53.176;10.412;2024-03-08T05:12:01;5.40;58.40
7034;DHT22;3558;53.176;10.412;2024-03-08T05:14:27;5.40;58.30
7034;DHT22;3558;53.176;10.412;2024-03-08T05:16:52;5.50;58.20
7034;DHT22;3558;53.176;10.412;2024-03-08T05:19:19;5.40;58.10
7034;DHT22;3558;53.176;10.412;2024-03-08T05:21:48;5.50;58.10
7034;DHT22;3558;53.176;10.412;2024-03-08T05:24:14;5.50;58.10
7034;DHT22;3558;53.176;10.412;2024-03-08T05:26:41;5.50;58.10
7034;DHT22;3558;53.176;10.412;2024-03-08T05:29:07;5.50;58.10
7034;DHT22;3558;53.176;10.412;2024-03-08T05:31:42;5.40;58.00
7034;DHT22;3558;53.176;10.412;2024-03-08T05:34:08;5.40;58.00
7034;DHT22;3558;53.176;10.412;2024-03-08T05:36:35;5.40;57.90
7034;DHT22;3558;53.176;10.412;2024-03-08T05:39:00;5.40;57.90
7034;DHT22;3558;53.176;10.412;2024-03-08T05:41:26;5.40;57.90
7034;DHT22;3558;53.176;10.412;2024-03-08T05:43:51;5.40;57.90
7034;DHT22;3558;53.176;10.412;2024-03-08T05:46:17;5.40;57.90
7034;DHT22;3558;53.176;10.412;2024-03-08T05:48:43;5.40;57.90
7034;DHT22;3558;53.176;10.412;2024-03-08T05:51:09;5.40;57.90
7034;DHT22;3558;53.176;10.412;2024-03-08T05:53:35;5.40;58.00
7034;DHT22;3558;53.176;10.412;2024-03-08T05:56:00;5.40;58.00
7034;DHT22;3558;53.176;10.412;2024-03-08T05:58:27;5.40;58.10
7034;DHT22;3558;53.176;10.412;2024-03-08T06:00:55;5.40;58.00
7034;DHT22;3558;53.176;10.412;2024-03-08T06:03:21;5.40;58.10
7034;DHT22;3558;53.176;10.412;2024-03-08T06:05:48;5.40;58.10
7034;DHT22;3558;53.176;10.412;2024-03-08T06:08:13;5.40;58.10
7034;DHT22;3558;53.176;10.412;2024-03-08T06:10:40;5.40;58.00
7034;DHT22;3558;53.176;10.412;2024-03-08T06:13:05;5.40;58.00
7034;DHT22;3558;53.176;10.412;2024-03-08T06:15:31;5.30;57.90
7034;DHT22;3558;53.176;10.412;2024-03-08T06:17:57;5.30;58.10
7034;DHT22;3558;53.176;10.412;2024-03-08T06:20:22;5.30;58.00
7034;DHT22;3558;53.176;10.412;2024-03-08T06:22:51;5.30;58.10
7034;DHT22;3558;53.176;10.412;2024-03-08T06:25:17;5.30;58.10
7034;DHT22;3558;53.176;10.412;2024-03-08T06:27:43;5.30;58.10
7034;DHT22;3558;53.176;10.412;2024-03-08T06:30:11;5.30;58.20
7034;DHT22;3558;53.176;10.412;2024-03-08T06:32:37;5.30;58.20
7034;DHT22;3558;53.176;10.412;2024-03-08T06:35:04;5.30;58.20
7034;DHT22;3558;53.176;10.412;2024-03-08T06:37:34;5.30;58.30
7034;DHT22;3558;53.176;10.412;2024-03-08T06:40:00;5.30;58.40
7034;DHT22;3558;53.176;10.412;2024-03-08T06:42:30;5.30;58.40
7034;DHT22;3558;53.176;10.412;2024-03-08T06:44:59;5.30;58.50
7034;DHT22;3558;53.176;10.412;2024-03-08T06:47:30;5.30;58.50
7034;DHT22;3558;53.176;10.412;2024-03-08T06:49:55;5.40;58.60
7034;DHT22;3558;53.176;10.412;2024-03-08T06:52:21;5.40;58.60
7034;DHT22;3558;53.176;10.412;2024-03-08T06:54:47;5.40;58.70
7034;DHT22;3558;53.176;10.412;2024-03-08T06:57:13;5.40;58.70
7034;DHT22;3558;53.176;10.412;2024-03-08T06:59:39;5.40;58.80
7034;DHT22;3558;53.176;10.412;2024-03-08T07:02:04;5.40;58.80
7034;DHT22;3558;53.176;10.412;2024-03-08T07:04:30;5.40;58.80
7034;DHT22;3558;53.176;10.412;2024-03-08T07:06:56;5.40;58.80
7034;DHT22;3558;53.176;10.412;2024-03-08T07:09:23;5.50;58.90
7034;DHT22;3558;53.176;10.412;2024-03-08T07:11:48;5.50;58.90
7034;DHT22;3558;53.176;10.412;2024-03-08T07:14:22;5.50;58.90
7034;DHT22;3558;53.176;10.412;2024-03-08T07:16:49;5.50;59.00
7034;DHT22;3558;53.176;10.412;2024-03-08T07:19:14;5.60;59.00
7034;DHT22;3558;53.176;10.412;2024-03-08T07:21:41;5.60;59.10
7034;DHT22;3558;53.176;10.412;2024-03-08T07:24:07;5.60;59.20
7034;DHT22;3558;53.176;10.412;2024-03-08T07:26:42;5.60;59.30
7034;DHT22;3558;53.176;10.412;2024-03-08T07:29:08;5.60;59.50
7034;DHT22;3558;53.176;10.412;2024-03-08T07:31:33;5.70;59.60
7034;DHT22;3558;53.176;10.412;2024-03-08T07:34:17;5.70;59.60
7034;DHT22;3558;53.176;10.412;2024-03-08T07:36:43;5.80;59.80
7034;DHT22;3558;53.176;10.412;2024-03-08T07:39:09;5.80;59.90
7034;DHT22;3558;53.176;10.412;2024-03-08T07:41:38;5.80;60.10
7034;DHT22;3558;53.176;10.412;2024-03-08T07:44:08;5.90;60.30
7034;DHT22;3558;53.176;10.412;2024-03-08T07:46:34;5.90;60.40
7034;DHT22;3558;53.176;10.412;2024-03-08T07:49:00;6.00;60.40
7034;DHT22;3558;53.176;10.412;2024-03-08T07:51:26;6.00;60.60
7034;DHT22;3558;53.176;10.412;2024-03-08T07:53:51;6.10;60.90
7034;DHT22;3558;53.176;10.412;2024-03-08T07:56:17;6.20;60.90
7034;DHT22;3558;53.176;10.412;2024-03-08T07:58:44;6.20;60.80
7034;DHT22;3558;53.176;10.412;2024-03-08T08:01:16;6.30;60.90
7034;DHT22;3558;53.176;10.412;2024-03-08T08:03:42;6.40;60.90
7034;DHT22;3558;53.176;10.412;2024-03-08T08:06:07;6.40;60.90
7034;DHT22;3558;53.176;10.412;2024-03-08T08:08:33;6.50;60.80
7034;DHT22;3558;53.176;10.412;2024-03-08T08:10:58;6.60;60.80
7034;DHT22;3558;53.176;10.412;2024-03-08T08:13:24;6.60;60.90
7034;DHT22;3558;53.176;10.412;2024-03-08T08:15:50;6.70;61.20
7034;DHT22;3558;53.176;10.412;2024-03-08T08:18:15;6.70;61.70
7034;DHT22;3558;53.176;10.412;2024-03-08T08:20:41;6.80;61.70
7034;DHT22;3558;53.176;10.412;2024-03-08T08:23:06;6.80;61.60
7034;DHT22;3558;53.176;10.412;2024-03-08T08:25:32;6.90;61.70
7034;DHT22;3558;53.176;10.412;2024-03-08T08:27:59;7.00;61.80
7034;DHT22;3558;53.176;10.412;2024-03-08T08:30:25;7.10;61.70
7034;DHT22;3558;53.176;10.412;2024-03-08T08:32:50;7.10;61.80
7034;DHT22;3558;53.176;10.412;2024-03-08T08:35:16;7.20;61.80
7034;DHT22;3558;53.176;10.412;2024-03-08T08:37:43;7.30;61.70
7034;DHT22;3558;53.176;10.412;2024-03-08T08:40:10;7.40;61.80
7034;DHT22;3558;53.176;10.412;2024-03-08T08:42:36;7.50;61.80
7034;DHT22;3558;53.176;10.412;2024-03-08T08:45:03;7.50;61.70
7034;DHT22;3558;53.176;10.412;2024-03-08T08:47:29;7.60;61.60
7034;DHT22;3558;53.176;10.412;2024-03-08T08:49:54;7.70;61.70
7034;DHT22;3558;53.176;10.412;2024-03-08T08:52:20;7.60;61.90
7034;DHT22;3558;53.176;10.412;2024-03-08T08:54:45;7.90;62.00
7034;DHT22;3558;53.176;10.412;2024-03-08T08:57:11;7.90;62.10
7034;DHT22;3558;53.176;10.412;2024-03-08T08:59:37;8.00;62.70
7034;DHT22;3558;53.176;10.412;2024-03-08T09:02:05;8.10;63.20
7034;DHT22;3558;53.176;10.412;2024-03-08T09:04:30;8.20;63.40
7034;DHT22;3558;53.176;10.412;2024-03-08T09:06:56;8.30;63.80
7034;DHT22;3558;53.176;10.412;2024-03-08T09:09:22;8.40;63.90
7034;DHT22;3558;53.176;10.412;2024-03-08T09:11:48;8.50;64.10
7034;DHT22;3558;53.176;10.412;2024-03-08T09:14:15;8.50;64.00
7034;DHT22;3558;53.176;10.412;2024-03-08T09:16:40;8.50;64.20
7034;DHT22;3558;53.176;10.412;2024-03-08T09:19:06;8.70;64.70
7034;DHT22;3558;53.176;10.412;2024-03-08T09:21:32;8.80;64.70
7034;DHT22;3558;53.176;10.412;2024-03-08T09:23:58;8.90;65.10
7034;DHT22;3558;53.176;10.412;2024-03-08T09:26:23;9.00;65.20
7034;DHT22;3558;53.176;10.412;2024-03-08T09:28:49;9.00;65.80
7034;DHT22;3558;53.176;10.412;2024-03-08T09:31:14;9.10;66.20
7034;DHT22;3558;53.176;10.412;2024-03-08T09:33:42;9.20;66.20
7034;DHT22;3558;53.176;10.412;2024-03-08T09:36:07;9.30;66.40
7034;DHT22;3558;53.176;10.412;2024-03-08T09:38:33;9.40;66.80
7034;DHT22;3558;53.176;10.412;2024-03-08T09:41:01;9.50;67.00
7034;DHT22;3558;53.176;10.412;2024-03-08T09:43:29;9.60;67.10
7034;DHT22;3558;53.176;10.412;2024-03-08T09:45:55;9.70;67.40
7034;DHT22;3558;53.176;10.412;2024-03-08T09:48:22;9.80;67.40
7034;DHT22;3558;53.176;10.412;2024-03-08T09:50:48;9.80;67.60
7034;DHT22;3558;53.176;10.412;2024-03-08T09:53:13;9.90;67.80
7034;DHT22;3558;53.176;10.412;2024-03-08T09:55:39;10.10;68.00
7034;DHT22;3558;53.176;10.412;2024-03-08T09:58:08;10.10;68.20
7034;DHT22;3558;53.176;10.412;2024-03-08T10:00:57;10.20;68.30
7034;DHT22;3558;53.176;10.412;2024-03-08T10:03:23;10.40;68.50
7034;DHT22;3558;53.176;10.412;2024-03-08T10:05:48;10.40;68.30
7034;DHT22;3558;53.176;10.412;2024-03-08T10:08:14;10.60;68.40
7034;DHT22;3558;53.176;10.412;2024-03-08T10:10:39;10.60;68.40
7034;DHT22;3558;53.176;10.412;2024-03-08T10:13:09;10.70;68.50
7034;DHT22;3558;53.176;10.412;2024-03-08T10:15:36;10.80;68.50
7034;DHT22;3558;53.176;10.412;2024-03-08T10:18:02;10.90;68.60
7034;DHT22;3558;53.176;10.412;2024-03-08T10:20:30;11.00;68.40
7034;DHT22;3558;53.176;10.412;2024-03-08T10:23:00;11.10;68.60
7034;DHT22;3558;53.176;10.412;2024-03-08T10:25:26;11.20;68.70
7034;DHT22;3558;53.176;10.412;2024-03-08T10:27:51;11.30;68.80
7034;DHT22;3558;53.176;10.412;2024-03-08T10:30:17;11.40;68.80
7034;DHT22;3558;53.176;10.412;2024-03-08T10:32:47;11.50;68.40
7034;DHT22;3558;53.176;10.412;2024-03-08T10:35:13;11.60;68.20
7034;DHT22;3558;53.176;10.412;2024-03-08T10:37:48;11.70;67.90
7034;DHT22;3558;53.176;10.412;2024-03-08T10:40:17;11.80;67.60
7034;DHT22;3558;53.176;10.412;2024-03-08T10:42:51;11.80;67.50
7034;DHT22;3558;53.176;10.412;2024-03-08T10:45:36;12.00;67.10
7034;DHT22;3558;53.176;10.412;2024-03-08T10:48:10;12.10;66.80
7034;DHT22;3558;53.176;10.412;2024-03-08T10:50:38;12.20;66.30
7034;DHT22;3558;53.176;10.412;2024-03-08T10:53:06;12.30;65.70
7034;DHT22;3558;53.176;10.412;2024-03-08T10:55:33;12.40;65.10
7034;DHT22;3558;53.176;10.412;2024-03-08T10:58:00;12.50;64.80
7034;DHT22;3558;53.176;10.412;2024-03-08T11:00:26;12.60;64.70
7034;DHT22;3558;53.176;10.412;2024-03-08T11:02:53;12.70;64.50
7034;DHT22;3558;53.176;10.412;2024-03-08T11:05:38;12.80;64.20
7034;DHT22;3558;53.176;10.412;2024-03-08T11:08:22;12.90;64.20
7034;DHT22;3558;53.176;10.412;2024-03-08T11:10:53;12.90;64.10
7034;DHT22;3558;53.176;10.412;2024-03-08T11:13:33;13.00;64.00
7034;DHT22;3558;53.176;10.412;2024-03-08T11:16:00;13.10;64.40
7034;DHT22;3558;53.176;10.412;2024-03-08T11:18:26;13.10;63.50
7034;DHT22;3558;53.176;10.412;2024-03-08T11:20:54;13.30;63.30
7034;DHT22;3558;53.176;10.412;2024-03-08T11:23:23;13.30;63.20
7034;DHT22;3558;53.176;10.412;2024-03-08T11:25:48;13.40;63.00
7034;DHT22;3558;53.176;10.412;2024-03-08T11:28:20;13.50;62.80
7034;DHT22;3558;53.176;10.412;2024-03-08T11:31:21;13.60;62.60
7034;DHT22;3558;53.176;10.412;2024-03-08T11:33:35;13.60;62.40
7034;DHT22;3558;53.176;10.412;2024-03-08T11:38:40;13.80;62.10
7034;DHT22;3558;53.176;10.412;2024-03-08T11:41:06;13.80;61.80
7034;DHT22;3558;53.176;10.412;2024-03-08T11:43:31;13.90;61.60
7034;DHT22;3558;53.176;10.412;2024-03-08T11:46:10;13.90;61.40
7034;DHT22;3558;53.176;10.412;2024-03-08T11:48:37;14.10;61.50
7034;DHT22;3558;53.176;10.412;2024-03-08T11:51:03;14.10;61.20
7034;DHT22;3558;53.176;10.412;2024-03-08T11:53:30;14.20;60.90
7034;DHT22;3558;53.176;10.412;2024-03-08T11:56:09;14.30;60.80
7034;DHT22;3558;53.176;10.412;2024-03-08T11:58:35;14.30;61.00
7034;DHT22;3558;53.176;10.412;2024-03-08T12:01:07;14.40;61.10
7034;DHT22;3558;53.176;10.412;2024-03-08T12:03:34;14.40;60.90
7034;DHT22;3558;53.176;10.412;2024-03-08T12:06:01;14.50;60.80
7034;DHT22;3558;53.176;10.412;2024-03-08T12:08:27;14.60;60.80
7034;DHT22;3558;53.176;10.412;2024-03-08T12:10:56;14.60;60.60
7034;DHT22;3558;53.176;10.412;2024-03-08T12:13:34;14.70;60.40
7034;DHT22;3558;53.176;10.412;2024-03-08T12:16:02;14.70;60.40
7034;DHT22;3558;53.176;10.412;2024-03-08T12:18:37;14.80;60.70
7034;DHT22;3558;53.176;10.412;2024-03-08T12:21:13;14.80;60.70
7034;DHT22;3558;53.176;10.412;2024-03-08T12:24:04;14.90;60.60
7034;DHT22;3558;53.176;10.412;2024-03-08T12:26:30;15.00;60.60
7034;DHT22;3558;53.176;10.412;2024-03-08T12:29:18;15.00;60.90
7034;DHT22;3558;53.176;10.412;2024-03-08T12:31:51;15.10;60.50
7034;DHT22;3558;53.176;10.412;2024-03-08T12:34:18;15.20;60.40
7034;DHT22;3558;53.176;10.412;2024-03-08T12:36:45;15.20;59.90
7034;DHT22;3558;53.176;10.412;2024-03-08T12:39:13;15.30;59.80
7034;DHT22;3558;53.176;10.412;2024-03-08T12:41:41;15.40;59.70
7034;DHT22;3558;53.176;10.412;2024-03-08T12:44:07;15.40;59.80
7034;DHT22;3558;53.176;10.412;2024-03-08T12:46:37;15.50;59.90
7034;DHT22;3558;53.176;10.412;2024-03-08T12:49:08;15.50;59.90
7034;DHT22;3558;53.176;10.412;2024-03-08T12:51:35;15.60;60.20
7034;DHT22;3558;53.176;10.412;2024-03-08T12:54:01;15.70;60.00
7034;DHT22;3558;53.176;10.412;2024-03-08T12:56:31;15.70;60.30
7034;DHT22;3558;53.176;10.412;2024-03-08T12:58:58;15.70;60.10
7034;DHT22;3558;53.176;10.412;2024-03-08T13:01:24;15.80;59.90
7034;DHT22;3558;53.176;10.412;2024-03-08T13:03:49;15.90;60.00
7034;DHT22;3558;53.176;10.412;2024-03-08T13:06:15;15.90;59.90
7034;DHT22;3558;53.176;10.412;2024-03-08T13:08:41;15.90;59.90
7034;DHT22;3558;53.176;10.412;2024-03-08T13:11:07;16.00;60.10
7034;DHT22;3558;53.176;10.412;2024-03-08T13:13:33;16.00;60.00
7034;DHT22;3558;53.176;10.412;2024-03-08T13:16:02;16.00;60.10
7034;DHT22;3558;53.176;10.412;2024-03-08T13:18:28;16.10;59.90
7034;DHT22;3558;53.176;10.412;2024-03-08T13:20:54;16.10;59.70
7034;DHT22;3558;53.176;10.412;2024-03-08T13:23:20;16.10;61.00
7034;DHT22;3558;53.176;10.412;2024-03-08T13:25:45;16.10;60.60
7034;DHT22;3558;53.176;10.412;2024-03-08T13:28:13;16.10;60.50
7034;DHT22;3558;53.176;10.412;2024-03-08T13:30:38;16.20;60.30
7034;DHT22;3558;53.176;10.412;2024-03-08T13:33:04;16.20;60.60
7034;DHT22;3558;53.176;10.412;2024-03-08T13:35:30;16.20;60.50
7034;DHT22;3558;53.176;10.412;2024-03-08T13:37:56;16.30;60.50
7034;DHT22;3558;53.176;10.412;2024-03-08T13:40:21;16.30;60.90
7034;DHT22;3558;53.176;10.412;2024-03-08T13:42:48;16.30;61.00
7034;DHT22;3558;53.176;10.412;2024-03-08T13:45:15;16.30;61.10
7034;DHT22;3558;53.176;10.412;2024-03-08T13:47:43;16.40;61.10
7034;DHT22;3558;53.176;10.412;2024-03-08T13:50:10;16.40;60.50
7034;DHT22;3558;53.176;10.412;2024-03-08T13:52:43;16.40;60.20
7034;DHT22;3558;53.176;10.412;2024-03-08T13:55:09;16.50;60.40
7034;DHT22;3558;53.176;10.412;2024-03-08T13:57:35;16.50;60.80
7034;DHT22;3558;53.176;10.412;2024-03-08T14:00:02;16.50;60.90
7034;DHT22;3558;53.176;10.412;2024-03-08T14:02:28;16.60;60.70
7034;DHT22;3558;53.176;10.412;2024-03-08T14:04:55;16.60;60.10
7034;DHT22;3558;53.176;10.412;2024-03-08T14:07:21;16.60;59.80
7034;DHT22;3558;53.176;10.412;2024-03-08T14:09:49;16.60;59.40
7034;DHT22;3558;53.176;10.412;2024-03-08T14:12:14;16.60;59.20
7034;DHT22;3558;53.176;10.412;2024-03-08T14:14:41;16.60;59.30
7034;DHT22;3558;53.176;10.412;2024-03-08T14:17:07;16.60;59.20
7034;DHT22;3558;53.176;10.412;2024-03-08T14:19:35;16.60;59.00
7034;DHT22;3558;53.176;10.412;2024-03-08T14:22:00;16.60;59.20
7034;DHT22;3558;53.176;10.412;2024-03-08T14:24:29;16.60;59.60
7034;DHT22;3558;53.176;10.412;2024-03-08T14:26:55;16.60;59.80
7034;DHT22;3558;53.176;10.412;2024-03-08T14:29:20;16.60;60.00
7034;DHT22;3558;53.176;10.412;2024-03-08T14:31:46;16.70;60.00
7034;DHT22;3558;53.176;10.412;2024-03-08T14:34:11;16.60;59.60
7034;DHT22;3558;53.176;10.412;2024-03-08T14:36:39;16.60;59.40
7034;DHT22;3558;53.176;10.412;2024-03-08T14:39:05;16.60;58.90
7034;DHT22;3558;53.176;10.412;2024-03-08T14:41:32;16.60;58.70
7034;DHT22;3558;53.176;10.412;2024-03-08T14:43:57;16.60;58.50
7034;DHT22;3558;53.176;10.412;2024-03-08T14:46:23;16.50;58.50
7034;DHT22;3558;53.176;10.412;2024-03-08T14:48:52;16.50;58.30
7034;DHT22;3558;53.176;10.412;2024-03-08T14:51:18;16.50;58.30
7034;DHT22;3558;53.176;10.412;2024-03-08T14:53:47;16.50;58.10
7034;DHT22;3558;53.176;10.412;2024-03-08T14:56:12;16.50;58.10
7034;DHT22;3558;53.176;10.412;2024-03-08T14:58:44;16.50;57.90
7034;DHT22;3558;53.176;10.412;2024-03-08T15:01:12;16.40;57.40
7034;DHT22;3558;53.176;10.412;2024-03-08T15:03:43;16.40;57.50
7034;DHT22;3558;53.176;10.412;2024-03-08T15:06:09;16.30;57.50
7034;DHT22;3558;53.176;10.412;2024-03-08T15:08:39;16.40;56.90
7034;DHT22;3558;53.176;10.412;2024-03-08T15:11:08;16.30;56.50
7034;DHT22;3558;53.176;10.412;2024-03-08T15:13:34;16.30;56.10
7034;DHT22;3558;53.176;10.412;2024-03-08T15:16:05;16.20;56.20
7034;DHT22;3558;53.176;10.412;2024-03-08T15:18:31;16.20;56.40
7034;DHT22;3558;53.176;10.412;2024-03-08T15:21:08;16.10;56.70
7034;DHT22;3558;53.176;10.412;2024-03-08T15:23:37;16.10;56.80
7034;DHT22;3558;53.176;10.412;2024-03-08T15:26:03;16.10;56.70
7034;DHT22;3558;53.176;10.412;2024-03-08T15:28:33;16.10;56.70
7034;DHT22;3558;53.176;10.412;2024-03-08T15:31:03;16.10;56.80
7034;DHT22;3558;53.176;10.412;2024-03-08T15:33:35;16.00;56.70
7034;DHT22;3558;53.176;10.412;2024-03-08T15:36:11;16.00;56.40
7034;DHT22;3558;53.176;10.412;2024-03-08T15:38:40;16.00;56.20
7034;DHT22;3558;53.176;10.412;2024-03-08T15:41:05;15.90;55.80
7034;DHT22;3558;53.176;10.412;2024-03-08T15:43:36;15.90;55.90
7034;DHT22;3558;53.176;10.412;2024-03-08T15:46:06;15.90;55.80
7034;DHT22;3558;53.176;10.412;2024-03-08T15:48:36;15.90;56.50
7034;DHT22;3558;53.176;10.412;2024-03-08T15:51:03;15.80;56.00
7034;DHT22;3558;53.176;10.412;2024-03-08T15:53:30;15.80;55.90
7034;DHT22;3558;53.176;10.412;2024-03-08T15:55:59;15.80;55.80
7034;DHT22;3558;53.176;10.412;2024-03-08T15:58:25;15.70;55.60
7034;DHT22;3558;53.176;10.412;2024-03-08T16:00:51;15.70;55.20
7034;DHT22;3558;53.176;10.412;2024-03-08T16:03:18;15.70;55.20
7034;DHT22;3558;53.176;10.412;2024-03-08T16:05:47;15.60;55.20
7034;DHT22;3558;53.176;10.412;2024-03-08T16:08:18;15.60;55.30
7034;DHT22;3558;53.176;10.412;2024-03-08T16:10:53;15.60;55.40
7034;DHT22;3558;53.176;10.412;2024-03-08T16:13:24;15.60;55.40
7034;DHT22;3558;53.176;10.412;2024-03-08T16:15:56;15.50;55.40
7034;DHT22;3558;53.176;10.412;2024-03-08T16:18:22;15.50;54.90
7034;DHT22;3558;53.176;10.412;2024-03-08T16:20:52;15.40;54.50
7034;DHT22;3558;53.176;10.412;2024-03-08T16:23:19;15.30;54.10
7034;DHT22;3558;53.176;10.412;2024-03-08T16:25:44;15.20;54.40
7034;DHT22;3558;53.176;10.412;2024-03-08T16:28:11;15.20;53.80
7034;DHT22;3558;53.176;10.412;2024-03-08T16:30:38;15.10;53.90
7034;DHT22;3558;53.176;10.412;2024-03-08T16:33:06;15.10;54.00
7034;DHT22;3558;53.176;10.412;2024-03-08T16:35:32;15.00;54.20
7034;DHT22;3558;53.176;10.412;2024-03-08T16:37:57;15.00;54.20
7034;DHT22;3558;53.176;10.412;2024-03-08T16:40:23;14.90;54.10
7034;DHT22;3558;53.176;10.412;2024-03-08T16:42:50;14.80;54.00
7034;DHT22;3558;53.176;10.412;2024-03-08T16:45:20;14.80;54.00
7034;DHT22;3558;53.176;10.412;2024-03-08T16:47:47;14.70;54.10
7034;DHT22;3558;53.176;10.412;2024-03-08T16:50:15;14.70;54.20
7034;DHT22;3558;53.176;10.412;2024-03-08T16:52:41;14.70;54.50
7034;DHT22;3558;53.176;10.412;2024-03-08T16:55:09;14.60;54.50
7034;DHT22;3558;53.176;10.412;2024-03-08T16:57:44;14.60;54.60
7034;DHT22;3558;53.176;10.412;2024-03-08T17:00:14;14.50;54.60
7034;DHT22;3558;53.176;10.412;2024-03-08T17:02:46;14.50;54.70
7034;DHT22;3558;53.176;10.412;2024-03-08T17:05:16;14.50;54.70
7034;DHT22;3558;53.176;10.412;2024-03-08T17:07:49;14.40;54.60
7034;DHT22;3558;53.176;10.412;2024-03-08T17:10:23;14.40;54.70
7034;DHT22;3558;53.176;10.412;2024-03-08T17:12:50;14.30;54.70